createdAt,value
2022-12-01T01:14:10.738Z,10.11
2022-12-01T01:27:11.807Z,9.83
2022-12-01T02:22:04.228Z,9.42
2022-12-01T02:36:30.987Z,9.29
2022-12-01T03:07:19.683Z,9.22
2022-12-01T03:59:12.584Z,9.04
2022-12-01T04:11:45.072Z,9.31
2022-12-01T04:18:55.316Z,9.45
2022-12-01T04:41:42.430Z,9.44
2022-12-01T05:17:09.763Z,9.44
2022-12-01T05:34:40.630Z,8.96
2022-12-01T06:45:09.266Z,7.88
2022-12-01T07:04:41.169Z,7.75
2022-12-01T08:02:05.195Z,7.79
2022-12-01T08:11:55.753Z,7.97
2022-12-01T08:15:25.074Z,8.24
2022-12-01T08:18:46.388Z,8.27
2022-12-01T08:21:48.453Z,8.40
2022-12-01T08:24:34.261Z,8.52
2022-12-01T08:27:04.522Z,8.65
2022-12-01T08:29:36.303Z,8.69
2022-12-01T08:32:07.568Z,8.80
2022-12-01T08:34:42.860Z,8.85
2022-12-01T08:37:12.083Z,8.87
2022-12-01T08:39:43.006Z,8.92
2022-12-01T08:42:18.526Z,8.93
2022-12-01T08:45:52.953Z,9.06
2022-12-01T08:48:30.454Z,9.09
2022-12-01T08:51:27.271Z,9.18
2022-12-01T08:53:59.087Z,9.27
2022-12-01T08:56:39.298Z,9.20
2022-12-01T08:59:11.351Z,9.36
2022-12-01T09:01:52.234Z,9.39
2022-12-01T09:05:19.604Z,9.48
2022-12-01T09:15:11.652Z,9.86
2022-12-01T09:17:41.137Z,9.95
2022-12-01T09:20:17.863Z,10.02
2022-12-01T09:22:59.781Z,10.00
2022-12-01T09:25:35.927Z,10.00
2022-12-01T09:28:08.352Z,9.86
2022-12-01T09:31:08.153Z,10.14
2022-12-01T09:33:50.897Z,10.18
2022-12-01T09:36:26.534Z,10.22
2022-12-01T09:39:35.717Z,10.25
2022-12-01T09:42:09.659Z,10.20
2022-12-01T09:44:43.759Z,10.20
2022-12-01T09:47:19.523Z,10.18
2022-12-01T09:50:04.182Z,10.27
2022-12-01T09:52:59.948Z,10.31
2022-12-01T09:55:33.386Z,10.29
2022-12-01T09:58:05.948Z,10.30
2022-12-01T10:00:42.305Z,10.27
2022-12-01T10:03:26.325Z,10.30
2022-12-01T10:06:29.396Z,10.14
2022-12-01T10:09:06.026Z,10.40
2022-12-01T10:12:05.149Z,10.45
2022-12-01T10:15:03.466Z,10.49
2022-12-01T10:17:44.035Z,10.34
2022-12-01T10:20:21.148Z,10.61
2022-12-01T10:23:27.178Z,10.81
2022-12-01T10:29:26.551Z,11.03
2022-12-01T10:32:03.262Z,11.24
2022-12-01T10:34:41.763Z,11.40
2022-12-01T10:40:18.330Z,11.59
2022-12-01T10:42:53.869Z,11.67
2022-12-01T10:45:32.499Z,11.75
2022-12-01T10:48:19.615Z,11.81
2022-12-01T10:50:52.104Z,11.99
2022-12-01T10:53:45.880Z,12.05
2022-12-01T10:56:23.690Z,12.21
2022-12-01T10:58:55.405Z,12.28
2022-12-01T11:01:36.779Z,12.41
2022-12-01T11:04:22.700Z,12.55
2022-12-01T11:07:01.836Z,12.69
2022-12-01T11:09:35.110Z,12.83
2022-12-01T11:12:21.357Z,12.88
2022-12-01T11:15:02.190Z,12.99
2022-12-01T11:17:40.343Z,13.05
2022-12-01T11:20:35.305Z,13.10
2022-12-01T11:23:29.922Z,13.11
2022-12-01T11:26:04.478Z,13.10
2022-12-01T11:28:36.927Z,13.08
2022-12-01T11:31:10.160Z,13.02
2022-12-01T11:33:52.640Z,12.95
2022-12-01T11:36:26.695Z,13.02
2022-12-01T11:39:03.201Z,12.97
2022-12-01T11:41:40.069Z,13.07
2022-12-01T11:44:43.548Z,12.93
2022-12-01T11:47:24.619Z,13.05
2022-12-01T11:50:00.991Z,13.08
2022-12-01T11:53:04.697Z,13.10
2022-12-01T11:55:46.440Z,13.09
2022-12-01T11:58:29.834Z,13.21
2022-12-01T12:01:01.896Z,13.29
2022-12-01T12:03:39.167Z,13.35
2022-12-01T12:06:40.342Z,13.39
2022-12-01T12:09:43.426Z,13.42
2022-12-01T12:12:20.139Z,13.45
2022-12-01T12:14:55.659Z,13.37
2022-12-01T12:17:44.834Z,13.53
2022-12-01T12:20:53.409Z,13.50
2022-12-01T12:24:13.616Z,13.49
2022-12-01T12:27:04.787Z,13.50
2022-12-01T12:29:44.138Z,13.49
2022-12-01T12:35:45.369Z,13.55
2022-12-01T12:38:29.976Z,13.48
2022-12-01T12:41:05.530Z,13.42
2022-12-01T12:43:40.858Z,13.57
2022-12-01T12:46:14.247Z,13.57
2022-12-01T12:49:20.861Z,13.60
2022-12-01T12:51:53.565Z,13.58
2022-12-01T12:54:36.114Z,13.60
2022-12-01T12:57:24.173Z,13.66
2022-12-01T13:00:03.021Z,13.66
2022-12-01T13:06:35.541Z,13.82
2022-12-01T13:09:11.655Z,13.91
2022-12-01T13:12:08.106Z,14.03
2022-12-01T13:14:41.283Z,14.24
2022-12-01T13:17:24.524Z,14.15
2022-12-01T13:19:57.294Z,14.49
2022-12-01T13:22:36.063Z,14.40
2022-12-01T13:25:10.177Z,14.70
2022-12-01T13:27:59.480Z,14.77
2022-12-01T13:30:44.869Z,14.88
2022-12-01T13:33:37.947Z,14.72
2022-12-01T13:36:47.779Z,14.73
2022-12-01T13:39:21.254Z,14.59
2022-12-01T13:42:08.455Z,14.50
2022-12-01T13:44:43.263Z,14.43
2022-12-01T13:47:35.935Z,14.38
2022-12-01T13:50:54.836Z,14.34
2022-12-01T13:53:51.353Z,14.27
2022-12-01T13:56:48.740Z,14.25
2022-12-01T14:00:07.932Z,14.24
2022-12-01T14:02:55.876Z,14.19
2022-12-01T14:05:47.689Z,14.20
2022-12-01T14:08:24.871Z,14.17
2022-12-01T14:11:14.641Z,14.20
2022-12-01T14:13:49.032Z,14.16
2022-12-01T14:16:25.478Z,14.19
2022-12-01T14:18:59.534Z,14.18
2022-12-01T14:21:45.475Z,14.15
2022-12-01T14:24:26.638Z,14.13
2022-12-01T14:26:58.868Z,14.13
2022-12-01T14:29:38.666Z,14.12
2022-12-01T14:32:25.026Z,14.17
2022-12-01T14:35:16.252Z,14.16
2022-12-01T14:37:51.683Z,14.18
2022-12-01T14:40:31.005Z,14.18
2022-12-01T14:43:22.972Z,14.17
2022-12-01T14:46:11.578Z,14.14
2022-12-01T14:49:05.031Z,14.14
2022-12-01T14:51:40.686Z,14.08
2022-12-01T14:54:32.004Z,14.12
2022-12-01T15:00:38.870Z,14.09
2022-12-01T15:06:45.513Z,13.94
2022-12-01T15:09:42.771Z,13.98
2022-12-01T15:12:44.330Z,13.97
2022-12-01T15:15:24.585Z,13.96
2022-12-01T15:17:58.470Z,13.93
2022-12-01T15:20:47.907Z,13.86
2022-12-01T15:23:24.013Z,13.89
2022-12-01T15:25:57.535Z,13.83
2022-12-01T15:28:45.520Z,13.86
2022-12-01T15:31:20.201Z,13.83
2022-12-01T15:33:59.271Z,13.79
2022-12-01T15:36:45.880Z,13.75
2022-12-01T15:39:25.214Z,13.74
2022-12-01T15:42:49.507Z,13.73
2022-12-01T15:45:29.008Z,13.63
2022-12-01T15:48:09.488Z,13.52
2022-12-01T15:50:46.254Z,13.39
2022-12-01T15:53:25.561Z,13.34
2022-12-01T15:55:59.033Z,13.24
2022-12-01T15:58:34.558Z,13.13
2022-12-01T16:01:20.962Z,13.03
2022-12-01T16:04:04.708Z,12.89
2022-12-01T16:06:52.129Z,12.80
2022-12-01T16:09:31.222Z,12.69
2022-12-01T16:12:19.949Z,12.60
2022-12-01T16:18:32.828Z,12.40
2022-12-01T16:21:07.781Z,12.28
2022-12-01T16:26:42.034Z,12.07
2022-12-01T16:29:35.172Z,12.02
2022-12-01T16:32:43.485Z,11.92
2022-12-01T16:35:26.410Z,11.80
2022-12-01T16:38:04.702Z,11.71
2022-12-01T16:40:37.699Z,11.61
2022-12-01T16:43:07.761Z,11.53
2022-12-01T16:45:44.121Z,11.43
2022-12-01T16:48:38.179Z,11.42
2022-12-01T16:54:06.791Z,11.23
2022-12-01T16:56:39.893Z,11.18
2022-12-01T16:59:10.362Z,11.10
2022-12-01T17:01:41.748Z,11.05
2022-12-01T17:04:14.544Z,11.03
2022-12-01T17:06:51.350Z,10.96
2022-12-01T17:09:23.165Z,10.92
2022-12-01T17:12:16.325Z,10.89
2022-12-01T17:15:05.477Z,10.88
2022-12-01T17:17:56.637Z,10.87
2022-12-01T17:20:27.668Z,10.87
2022-12-01T17:23:00.328Z,10.87
2022-12-01T17:25:31.875Z,10.81
2022-12-01T17:28:04.691Z,10.76
2022-12-01T17:30:35.674Z,10.64
2022-12-01T17:33:05.724Z,10.65
2022-12-01T17:35:35.677Z,10.57
2022-12-01T17:38:13.811Z,10.48
2022-12-01T17:40:43.490Z,10.47
2022-12-01T17:43:21.341Z,10.42
2022-12-01T17:45:56.844Z,10.37
2022-12-01T17:48:28.709Z,10.28
2022-12-01T17:51:03.508Z,10.31
2022-12-01T17:53:35.348Z,10.24
2022-12-01T17:56:07.142Z,10.17
2022-12-01T18:01:30.500Z,10.10
2022-12-01T18:04:00.336Z,10.11
2022-12-01T18:06:33.334Z,10.08
2022-12-01T18:09:11.696Z,10.04
2022-12-01T18:11:41.641Z,10.05
2022-12-01T18:14:10.837Z,10.00
2022-12-01T18:16:39.425Z,9.90
2022-12-01T18:19:12.893Z,9.93
2022-12-01T18:21:42.885Z,9.86
2022-12-01T18:24:15.379Z,9.83
2022-12-01T18:26:44.708Z,9.83
2022-12-01T18:29:34.509Z,9.78
2022-12-01T18:32:09.329Z,9.75
2022-12-01T18:34:40.204Z,9.72
2022-12-01T18:37:15.522Z,9.68
2022-12-01T18:39:49.875Z,9.63
2022-12-01T18:42:20.106Z,9.48
2022-12-01T18:44:53.510Z,9.60
2022-12-01T18:47:25.403Z,9.57
2022-12-01T18:50:09.268Z,9.51
2022-12-01T18:52:40.744Z,9.53
2022-12-01T18:55:12.808Z,9.48
2022-12-01T18:57:42.736Z,9.44
2022-12-01T19:00:12.965Z,9.41
2022-12-01T19:02:45.837Z,9.39
2022-12-01T19:05:15.084Z,9.40
2022-12-01T19:07:48.117Z,9.33
2022-12-01T19:10:23.446Z,9.35
2022-12-01T19:12:56.910Z,9.30
2022-12-01T19:15:26.861Z,9.32
2022-12-01T19:17:57.388Z,9.29
2022-12-01T19:20:30.727Z,9.25
2022-12-01T19:23:00.940Z,9.23
2022-12-01T19:25:44.708Z,9.22
2022-12-01T19:28:14.214Z,9.22
2022-12-01T19:30:48.072Z,9.16
2022-12-01T19:33:21.577Z,9.17
2022-12-01T19:35:50.454Z,9.16
2022-12-01T19:38:21.156Z,9.11
2022-12-01T19:40:54.798Z,9.09
2022-12-01T19:43:25.554Z,9.11
2022-12-01T19:45:54.378Z,9.07
2022-12-01T19:48:22.931Z,9.05
2022-12-01T19:50:52.093Z,8.98
2022-12-01T19:53:22.999Z,8.98
2022-12-01T19:55:57.591Z,8.94
2022-12-01T19:58:26.819Z,8.96
2022-12-01T20:00:56.501Z,8.97
2022-12-01T20:03:28.863Z,8.93
2022-12-01T20:06:07.881Z,8.77
2022-12-01T20:08:40.320Z,8.90
2022-12-01T20:11:11.919Z,8.88
2022-12-01T20:13:48.601Z,8.84
2022-12-01T20:16:22.107Z,8.87
2022-12-01T20:18:51.906Z,8.81
2022-12-01T20:21:42.525Z,8.68
2022-12-01T20:24:17.490Z,8.81
2022-12-01T20:26:50.302Z,8.75
2022-12-01T20:29:22.184Z,8.75
2022-12-01T20:31:55.295Z,8.76
2022-12-01T20:34:29.586Z,8.66
2022-12-01T20:36:58.513Z,8.74
2022-12-01T20:39:28.903Z,8.70
2022-12-01T20:41:59.681Z,8.67
2022-12-01T20:44:30.084Z,8.66
2022-12-01T20:47:02.551Z,8.65
2022-12-01T20:49:41.544Z,8.63
2022-12-01T20:52:11.848Z,8.62
2022-12-01T20:54:52.189Z,8.57
2022-12-01T20:57:25.252Z,8.61
2022-12-01T20:59:53.985Z,8.58
2022-12-01T21:02:23.123Z,8.57
2022-12-01T21:04:57.713Z,8.45
2022-12-01T21:07:31.240Z,8.51
2022-12-01T21:10:08.419Z,8.55
2022-12-01T21:12:57.580Z,8.53
2022-12-01T21:15:31.309Z,8.52
2022-12-01T21:18:14.253Z,8.48
2022-12-01T21:20:48.139Z,8.45
2022-12-01T21:23:20.115Z,8.40
2022-12-01T21:25:49.224Z,8.36
2022-12-01T21:28:24.255Z,8.35
2022-12-01T21:30:55.394Z,8.32
2022-12-01T21:33:31.269Z,8.29
2022-12-01T21:36:03.698Z,8.15
2022-12-01T21:38:42.890Z,8.19
2022-12-01T21:41:19.350Z,8.15
2022-12-01T21:43:59.725Z,8.16
2022-12-01T21:46:38.017Z,8.18
2022-12-01T21:49:14.399Z,8.16
2022-12-01T21:51:46.728Z,8.16
2022-12-01T21:54:19.249Z,8.11
2022-12-01T21:56:53.527Z,8.11
2022-12-01T21:59:25.213Z,8.13
2022-12-01T22:01:54.728Z,8.16
2022-12-01T22:04:24.570Z,8.16
2022-12-01T22:06:53.628Z,8.18
2022-12-01T22:09:30.283Z,8.12
2022-12-01T22:11:59.676Z,8.12
2022-12-01T22:14:35.966Z,8.10
2022-12-01T22:17:18.422Z,8.16
2022-12-01T22:19:48.694Z,8.09
2022-12-01T22:22:25.354Z,8.13
2022-12-01T22:24:55.341Z,8.12
2022-12-01T22:27:29.353Z,8.15
2022-12-01T22:30:02.328Z,8.04
2022-12-01T22:35:25.618Z,8.12
2022-12-01T22:37:57.536Z,8.09
2022-12-01T22:40:39.161Z,8.09
2022-12-01T22:43:28.486Z,8.08
2022-12-01T22:46:41.918Z,8.08
2022-12-01T22:49:19.770Z,8.04
2022-12-01T22:52:04.218Z,8.08
2022-12-01T22:54:45.089Z,8.04
2022-12-01T22:57:43.209Z,8.08
2022-12-01T23:00:19.085Z,8.07
2022-12-01T23:02:51.306Z,8.10
2022-12-01T23:05:25.171Z,8.12
2022-12-01T23:07:54.267Z,8.06
2022-12-01T23:10:27.510Z,8.15
2022-12-01T23:13:00.136Z,8.06
2022-12-01T23:15:33.080Z,8.13
2022-12-01T23:18:10.023Z,8.15
2022-12-01T23:20:41.473Z,8.17
2022-12-01T23:23:15.934Z,8.19
2022-12-01T23:25:46.294Z,8.19
2022-12-01T23:28:17.777Z,8.17
2022-12-01T23:30:50.314Z,8.22
2022-12-01T23:33:30.310Z,8.22
2022-12-01T23:36:02.729Z,8.21
2022-12-01T23:38:34.197Z,8.19
2022-12-01T23:41:07.266Z,8.18
2022-12-01T23:43:38.910Z,8.18
2022-12-01T23:46:10.914Z,8.16
2022-12-01T23:48:44.684Z,8.16
2022-12-01T23:51:21.069Z,8.16
2022-12-01T23:53:49.999Z,8.15
2022-12-01T23:56:22.691Z,8.16
2022-12-01T23:58:51.313Z,8.06
